sensor_id;sensor_type;location;lat;lon;timestamp;temperature;humidity
13174;DHT22;6652;48.802;9.190;2023-12-07T00:02:07;3.80;99.90
13174;DHT22;6652;48.802;9.190;2023-12-07T00:04:34;3.90;99.90
13174;DHT22;6652;48.802;9.190;2023-12-07T00:07:01;3.90;99.90
13174;DHT22;6652;48.802;9.190;2023-12-07T00:09:29;3.90;99.90
13174;DHT22;6652;48.802;9.190;2023-12-07T00:11:55;3.90;99.90
13174;DHT22;6652;48.802;9.190;2023-12-07T00:14:22;3.90;99.90
13174;DHT22;6652;48.802;9.190;2023-12-07T00:16:49;3.90;99.90
13174;DHT22;6652;48.802;9.190;2023-12-07T00:19:16;3.80;99.90
13174;DHT22;6652;48.802;9.190;2023-12-07T00:21:42;3.90;99.90
13174;DHT22;6652;48.802;9.190;2023-12-07T00:24:09;3.90;99.90
13174;DHT22;6652;48.802;9.190;2023-12-07T00:26:37;3.80;99.90
13174;DHT22;6652;48.802;9.190;2023-12-07T00:29:05;3.80;99.90
13174;DHT22;6652;48.802;9.190;2023-12-07T00:31:31;3.80;99.90
13174;DHT22;6652;48.802;9.190;2023-12-07T00:33:58;3.80;99.90
13174;DHT22;6652;48.802;9.190;2023-12-07T00:36:26;3.80;99.90
13174;DHT22;6652;48.802;9.190;2023-12-07T00:38:52;3.80;99.90
13174;DHT22;6652;48.802;9.190;2023-12-07T00:41:19;3.90;99.90
13174;DHT22;6652;48.802;9.190;2023-12-07T00:43:47;3.90;99.90
13174;DHT22;6652;48.802;9.190;2023-12-07T00:46:14;3.90;99.90
13174;DHT22;6652;48.802;9.190;2023-12-07T00:48:41;4.00;99.90
13174;DHT22;6652;48.802;9.190;2023-12-07T00:51:07;3.90;99.90
13174;DHT22;6652;48.802;9.190;2023-12-07T00:53:34;4.00;99.90
13174;DHT22;6652;48.802;9.190;2023-12-07T00:56:02;4.00;99.90
13174;DHT22;6652;48.802;9.190;2023-12-07T00:58:29;4.00;99.90
13174;DHT22;6652;48.802;9.190;2023-12-07T01:00:57;4.10;99.90
13174;DHT22;6652;48.802;9.190;2023-12-07T01:03:24;4.10;99.90
13174;DHT22;6652;48.802;9.190;2023-12-07T01:05:51;4.10;99.90
13174;DHT22;6652;48.802;9.190;2023-12-07T01:08:17;4.00;99.90
13174;DHT22;6652;48.802;9.190;2023-12-07T01:10:44;4.00;99.90
13174;DHT22;6652;48.802;9.190;2023-12-07T01:13:11;4.00;99.90
13174;DHT22;6652;48.802;9.190;2023-12-07T01:15:38;4.00;99.90
13174;DHT22;6652;48.802;9.190;2023-12-07T01:18:06;4.10;99.90
13174;DHT22;6652;48.802;9.190;2023-12-07T01:20:33;4.00;99.90
13174;DHT22;6652;48.802;9.190;2023-12-07T01:22:59;4.00;99.90
13174;DHT22;6652;48.802;9.190;2023-12-07T01:25:26;4.00;99.90
13174;DHT22;6652;48.802;9.190;2023-12-07T01:27:53;4.00;99.90
13174;DHT22;6652;48.802;9.190;2023-12-07T01:30:20;4.00;99.90
13174;DHT22;6652;48.802;9.190;2023-12-07T01:32:47;4.00;99.90
13174;DHT22;6652;48.802;9.190;2023-12-07T01:35:16;4.00;99.90
13174;DHT22;6652;48.802;9.190;2023-12-07T01:37:43;4.00;99.90
13174;DHT22;6652;48.802;9.190;2023-12-07T01:40:11;4.00;99.90
13174;DHT22;6652;48.802;9.190;2023-12-07T01:42:38;4.00;99.90
13174;DHT22;6652;48.802;9.190;2023-12-07T01:45:06;4.00;99.90
13174;DHT22;6652;48.802;9.190;2023-12-07T01:47:34;4.00;99.90
13174;DHT22;6652;48.802;9.190;2023-12-07T01:50:02;3.90;99.90
13174;DHT22;6652;48.802;9.190;2023-12-07T01:52:35;3.90;99.90
13174;DHT22;6652;48.802;9.190;2023-12-07T01:55:04;3.90;99.90
13174;DHT22;6652;48.802;9.190;2023-12-07T01:57:33;3.80;99.90
13174;DHT22;6652;48.802;9.190;2023-12-07T02:00:01;3.80;99.90
13174;DHT22;6652;48.802;9.190;2023-12-07T02:02:29;3.80;99.90
13174;DHT22;6652;48.802;9.190;2023-12-07T02:04:56;3.80;99.90
13174;DHT22;6652;48.802;9.190;2023-12-07T02:07:23;3.70;99.90
13174;DHT22;6652;48.802;9.190;2023-12-07T02:09:51;3.60;99.90
13174;DHT22;6652;48.802;9.190;2023-12-07T02:12:18;3.60;99.90
13174;DHT22;6652;48.802;9.190;2023-12-07T02:14:45;3.60;99.90
13174;DHT22;6652;48.802;9.190;2023-12-07T02:17:17;3.60;99.90
13174;DHT22;6652;48.802;9.190;2023-12-07T02:19:52;3.70;99.90
13174;DHT22;6652;48.802;9.190;2023-12-07T02:22:25;3.60;99.90
13174;DHT22;6652;48.802;9.190;2023-12-07T02:25:06;3.60;99.90
13174;DHT22;6652;48.802;9.190;2023-12-07T02:27:39;3.60;99.90
13174;DHT22;6652;48.802;9.190;2023-12-07T02:30:08;3.50;99.90
13174;DHT22;6652;48.802;9.190;2023-12-07T02:32:35;3.50;99.90
13174;DHT22;6652;48.802;9.190;2023-12-07T02:35:03;3.40;99.90
13174;DHT22;6652;48.802;9.190;2023-12-07T02:37:40;3.40;99.90
13174;DHT22;6652;48.802;9.190;2023-12-07T02:40:08;3.30;99.90
13174;DHT22;6652;48.802;9.190;2023-12-07T02:42:38;3.30;99.90
13174;DHT22;6652;48.802;9.190;2023-12-07T02:45:07;3.20;99.90
13174;DHT22;6652;48.802;9.190;2023-12-07T02:47:34;3.40;99.90
13174;DHT22;6652;48.802;9.190;2023-12-07T02:50:02;3.00;99.90
13174;DHT22;6652;48.802;9.190;2023-12-07T02:52:28;3.00;99.90
13174;DHT22;6652;48.802;9.190;2023-12-07T02:54:55;2.90;99.90
13174;DHT22;6652;48.802;9.190;2023-12-07T02:57:22;2.80;99.90
13174;DHT22;6652;48.802;9.190;2023-12-07T02:59:50;2.70;99.90
13174;DHT22;6652;48.802;9.190;2023-12-07T03:02:17;2.70;99.90
13174;DHT22;6652;48.802;9.190;2023-12-07T03:04:44;2.60;99.90
13174;DHT22;6652;48.802;9.190;2023-12-07T03:07:11;2.60;99.90
13174;DHT22;6652;48.802;9.190;2023-12-07T03:09:38;2.60;99.90
13174;DHT22;6652;48.802;9.190;2023-12-07T03:12:06;2.60;99.90
13174;DHT22;6652;48.802;9.190;2023-12-07T03:14:33;2.60;99.90
13174;DHT22;6652;48.802;9.190;2023-12-07T03:17:01;2.60;99.90
13174;DHT22;6652;48.802;9.190;2023-12-07T03:19:27;2.70;99.90
13174;DHT22;6652;48.802;9.190;2023-12-07T03:21:54;2.70;99.90
13174;DHT22;6652;48.802;9.190;2023-12-07T03:24:21;2.70;99.90
13174;DHT22;6652;48.802;9.190;2023-12-07T03:26:48;2.70;99.90
13174;DHT22;6652;48.802;9.190;2023-12-07T03:29:14;2.70;99.90
13174;DHT22;6652;48.802;9.190;2023-12-07T03:31:41;2.70;99.90
13174;DHT22;6652;48.802;9.190;2023-12-07T03:34:09;2.70;99.90
13174;DHT22;6652;48.802;9.190;2023-12-07T03:36:38;2.70;99.90
13174;DHT22;6652;48.802;9.190;2023-12-07T03:39:04;2.70;99.90
13174;DHT22;6652;48.802;9.190;2023-12-07T03:41:31;2.70;99.90
13174;DHT22;6652;48.802;9.190;2023-12-07T03:43:58;2.70;99.90
13174;DHT22;6652;48.802;9.190;2023-12-07T03:46:25;2.60;99.90
13174;DHT22;6652;48.802;9.190;2023-12-07T03:48:52;2.60;99.90
13174;DHT22;6652;48.802;9.190;2023-12-07T03:51:20;2.50;99.90
13174;DHT22;6652;48.802;9.190;2023-12-07T03:53:47;2.40;99.90
13174;DHT22;6652;48.802;9.190;2023-12-07T03:56:22;2.40;99.90
13174;DHT22;6652;48.802;9.190;2023-12-07T03:58:49;2.40;99.90
13174;DHT22;6652;48.802;9.190;2023-12-07T04:01:16;2.40;99.90
13174;DHT22;6652;48.802;9.190;2023-12-07T04:03:43;2.40;99.90
13174;DHT22;6652;48.802;9.190;2023-12-07T04:06:09;2.40;99.90
13174;DHT22;6652;48.802;9.190;2023-12-07T04:08:38;2.30;99.90
13174;DHT22;6652;48.802;9.190;2023-12-07T04:11:04;2.30;99.90
13174;DHT22;6652;48.802;9.190;2023-12-07T04:13:31;2.20;99.90
13174;DHT22;6652;48.802;9.190;2023-12-07T04:15:58;2.10;99.90
13174;DHT22;6652;48.802;9.190;2023-12-07T04:18:25;2.10;99.90
13174;DHT22;6652;48.802;9.190;2023-12-07T04:20:51;2.00;99.90
13174;DHT22;6652;48.802;9.190;2023-12-07T04:23:19;1.90;99.90
13174;DHT22;6652;48.802;9.190;2023-12-07T04:25:47;1.90;99.90
13174;DHT22;6652;48.802;9.190;2023-12-07T04:28:14;1.80;99.90
13174;DHT22;6652;48.802;9.190;2023-12-07T04:30:40;1.70;99.90
13174;DHT22;6652;48.802;9.190;2023-12-07T04:33:07;1.60;99.90
13174;DHT22;6652;48.802;9.190;2023-12-07T04:35:34;1.60;99.90
13174;DHT22;6652;48.802;9.190;2023-12-07T04:38:01;1.50;99.90
13174;DHT22;6652;48.802;9.190;2023-12-07T04:40:28;1.50;99.90
13174;DHT22;6652;48.802;9.190;2023-12-07T04:42:56;1.50;99.90
13174;DHT22;6652;48.802;9.190;2023-12-07T04:45:23;1.40;99.90
13174;DHT22;6652;48.802;9.190;2023-12-07T04:47:50;1.40;99.90
13174;DHT22;6652;48.802;9.190;2023-12-07T04:50:16;1.30;99.90
13174;DHT22;6652;48.802;9.190;2023-12-07T04:52:43;1.30;99.90
13174;DHT22;6652;48.802;9.190;2023-12-07T04:55:10;1.30;99.90
13174;DHT22;6652;48.802;9.190;2023-12-07T04:57:37;1.20;99.90
13174;DHT22;6652;48.802;9.190;2023-12-07T05:00:06;1.30;99.90
13174;DHT22;6652;48.802;9.190;2023-12-07T05:02:35;1.30;99.90
13174;DHT22;6652;48.802;9.190;2023-12-07T05:05:03;1.30;99.90
13174;DHT22;6652;48.802;9.190;2023-12-07T05:07:30;1.20;99.90
13174;DHT22;6652;48.802;9.190;2023-12-07T05:09:57;1.30;99.90
13174;DHT22;6652;48.802;9.190;2023-12-07T05:12:23;1.20;99.90
13174;DHT22;6652;48.802;9.190;2023-12-07T05:14:50;1.20;99.90
13174;DHT22;6652;48.802;9.190;2023-12-07T05:17:18;1.20;99.90
13174;DHT22;6652;48.802;9.190;2023-12-07T05:19:45;1.10;99.90
13174;DHT22;6652;48.802;9.190;2023-12-07T05:22:12;1.10;99.90
13174;DHT22;6652;48.802;9.190;2023-12-07T05:24:40;1.10;99.90
13174;DHT22;6652;48.802;9.190;2023-12-07T05:27:07;1.10;99.90
13174;DHT22;6652;48.802;9.190;2023-12-07T05:29:33;1.00;99.90
13174;DHT22;6652;48.802;9.190;2023-12-07T05:32:00;1.00;99.90
13174;DHT22;6652;48.802;9.190;2023-12-07T05:34:28;1.00;99.90
13174;DHT22;6652;48.802;9.190;2023-12-07T05:36:55;0.90;99.90
13174;DHT22;6652;48.802;9.190;2023-12-07T05:39:22;0.90;99.90
13174;DHT22;6652;48.802;9.190;2023-12-07T05:41:48;0.80;99.90
13174;DHT22;6652;48.802;9.190;2023-12-07T05:44:15;0.80;99.90
13174;DHT22;6652;48.802;9.190;2023-12-07T05:46:47;0.80;99.90
13174;DHT22;6652;48.802;9.190;2023-12-07T05:49:14;0.70;99.90
13174;DHT22;6652;48.802;9.190;2023-12-07T05:51:42;0.70;99.90
13174;DHT22;6652;48.802;9.190;2023-12-07T05:54:09;0.60;99.90
13174;DHT22;6652;48.802;9.190;2023-12-07T05:56:35;0.60;99.90
13174;DHT22;6652;48.802;9.190;2023-12-07T05:59:02;0.70;99.90
13174;DHT22;6652;48.802;9.190;2023-12-07T06:01:29;0.70;99.90
13174;DHT22;6652;48.802;9.190;2023-12-07T06:03:56;0.60;99.90
13174;DHT22;6652;48.802;9.190;2023-12-07T06:06:23;0.70;99.90
13174;DHT22;6652;48.802;9.190;2023-12-07T06:08:51;0.60;99.90
13174;DHT22;6652;48.802;9.190;2023-12-07T06:11:17;0.60;99.90
13174;DHT22;6652;48.802;9.190;2023-12-07T06:13:44;0.60;99.90
13174;DHT22;6652;48.802;9.190;2023-12-07T06:16:12;0.60;99.90
13174;DHT22;6652;48.802;9.190;2023-12-07T06:18:40;0.60;99.90
13174;DHT22;6652;48.802;9.190;2023-12-07T06:21:06;0.50;99.90
13174;DHT22;6652;48.802;9.190;2023-12-07T06:23:33;0.60;99.90
13174;DHT22;6652;48.802;9.190;2023-12-07T06:26:02;0.50;99.90
13174;DHT22;6652;48.802;9.190;2023-12-07T06:28:30;0.50;99.90
13174;DHT22;6652;48.802;9.190;2023-12-07T06:30:57;0.50;99.90
13174;DHT22;6652;48.802;9.190;2023-12-07T06:33:24;0.40;99.90
13174;DHT22;6652;48.802;9.190;2023-12-07T06:35:51;0.40;99.90
13174;DHT22;6652;48.802;9.190;2023-12-07T06:38:17;0.40;99.90
13174;DHT22;6652;48.802;9.190;2023-12-07T06:40:45;0.30;99.90
13174;DHT22;6652;48.802;9.190;2023-12-07T06:43:14;0.50;99.90
13174;DHT22;6652;48.802;9.190;2023-12-07T06:45:40;0.30;99.90
13174;DHT22;6652;48.802;9.190;2023-12-07T06:48:07;0.30;99.90
13174;DHT22;6652;48.802;9.190;2023-12-07T06:50:34;0.30;99.90
13174;DHT22;6652;48.802;9.190;2023-12-07T06:53:01;0.30;99.90
13174;DHT22;6652;48.802;9.190;2023-12-07T06:55:28;0.30;99.90
13174;DHT22;6652;48.802;9.190;2023-12-07T06:57:54;0.30;99.90
13174;DHT22;6652;48.802;9.190;2023-12-07T07:00:23;0.30;99.90
13174;DHT22;6652;48.802;9.190;2023-12-07T07:02:50;0.30;99.90
13174;DHT22;6652;48.802;9.190;2023-12-07T07:05:16;0.30;99.90
13174;DHT22;6652;48.802;9.190;2023-12-07T07:07:43;0.30;99.90
13174;DHT22;6652;48.802;9.190;2023-12-07T07:10:10;0.60;99.90
13174;DHT22;6652;48.802;9.190;2023-12-07T07:12:37;0.40;99.90
13174;DHT22;6652;48.802;9.190;2023-12-07T07:15:07;0.60;99.90
13174;DHT22;6652;48.802;9.190;2023-12-07T07:17:35;1.10;99.90
13174;DHT22;6652;48.802;9.190;2023-12-07T07:20:02;1.60;99.90
13174;DHT22;6652;48.802;9.190;2023-12-07T07:22:29;2.30;99.90
13174;DHT22;6652;48.802;9.190;2023-12-07T07:24:56;2.90;99.90
13174;DHT22;6652;48.802;9.190;2023-12-07T07:27:23;3.50;99.90
13174;DHT22;6652;48.802;9.190;2023-12-07T07:29:49;4.20;99.90
13174;DHT22;6652;48.802;9.190;2023-12-07T07:32:16;4.80;99.90
13174;DHT22;6652;48.802;9.190;2023-12-07T07:34:44;5.30;99.90
13174;DHT22;6652;48.802;9.190;2023-12-07T07:37:11;6.00;99.90
13174;DHT22;6652;48.802;9.190;2023-12-07T07:39:38;6.60;99.90
13174;DHT22;6652;48.802;9.190;2023-12-07T07:42:05;7.10;99.90
13174;DHT22;6652;48.802;9.190;2023-12-07T07:44:32;7.70;99.90
13174;DHT22;6652;48.802;9.190;2023-12-07T07:46:58;8.00;99.90
13174;DHT22;6652;48.802;9.190;2023-12-07T07:49:25;8.30;99.90
13174;DHT22;6652;48.802;9.190;2023-12-07T07:51:53;8.80;99.90
13174;DHT22;6652;48.802;9.190;2023-12-07T07:54:20;9.30;99.90
13174;DHT22;6652;48.802;9.190;2023-12-07T07:56:47;9.90;99.90
13174;DHT22;6652;48.802;9.190;2023-12-07T07:59:14;10.40;99.90
13174;DHT22;6652;48.802;9.190;2023-12-07T08:01:41;11.00;99.90
13174;DHT22;6652;48.802;9.190;2023-12-07T08:04:08;11.40;99.90
13174;DHT22;6652;48.802;9.190;2023-12-07T08:06:35;11.90;99.90
13174;DHT22;6652;48.802;9.190;2023-12-07T08:09:04;12.30;99.90
13174;DHT22;6652;48.802;9.190;2023-12-07T08:11:30;12.70;99.90
13174;DHT22;6652;48.802;9.190;2023-12-07T08:13:58;13.10;99.90
13174;DHT22;6652;48.802;9.190;2023-12-07T08:16:25;13.30;99.90
13174;DHT22;6652;48.802;9.190;2023-12-07T08:18:52;13.40;99.90
13174;DHT22;6652;48.802;9.190;2023-12-07T08:21:20;13.50;99.90
13174;DHT22;6652;48.802;9.190;2023-12-07T08:23:47;13.40;99.90
13174;DHT22;6652;48.802;9.190;2023-12-07T08:26:15;13.20;99.90
13174;DHT22;6652;48.802;9.190;2023-12-07T08:28:42;13.20;99.90
13174;DHT22;6652;48.802;9.190;2023-12-07T08:31:09;13.40;99.90
13174;DHT22;6652;48.802;9.190;2023-12-07T08:33:37;13.50;99.90
13174;DHT22;6652;48.802;9.190;2023-12-07T08:36:05;13.70;99.90
13174;DHT22;6652;48.802;9.190;2023-12-07T08:38:33;14.00;99.90
13174;DHT22;6652;48.802;9.190;2023-12-07T08:41:00;14.00;99.20
13174;DHT22;6652;48.802;9.190;2023-12-07T08:43:30;14.10;99.70
13174;DHT22;6652;48.802;9.190;2023-12-07T08:45:57;14.60;98.80
13174;DHT22;6652;48.802;9.190;2023-12-07T08:48:24;14.80;97.60
13174;DHT22;6652;48.802;9.190;2023-12-07T08:50:51;15.10;97.50
13174;DHT22;6652;48.802;9.190;2023-12-07T08:53:18;15.30;96.90
13174;DHT22;6652;48.802;9.190;2023-12-07T08:55:44;15.40;95.50
13174;DHT22;6652;48.802;9.190;2023-12-07T08:58:11;15.60;94.90
13174;DHT22;6652;48.802;9.190;2023-12-07T09:00:39;16.00;94.80
13174;DHT22;6652;48.802;9.190;2023-12-07T09:03:06;16.20;93.50
13174;DHT22;6652;48.802;9.190;2023-12-07T09:05:33;16.00;92.80
13174;DHT22;6652;48.802;9.190;2023-12-07T09:07:59;15.80;92.60
13174;DHT22;6652;48.802;9.190;2023-12-07T09:10:26;15.70;92.30
13174;DHT22;6652;48.802;9.190;2023-12-07T09:12:53;15.60;91.90
13174;DHT22;6652;48.802;9.190;2023-12-07T09:15:20;15.20;92.00
13174;DHT22;6652;48.802;9.190;2023-12-07T09:17:49;15.50;92.00
13174;DHT22;6652;48.802;9.190;2023-12-07T09:20:15;15.50;91.80
13174;DHT22;6652;48.802;9.190;2023-12-07T09:22:43;15.40;91.60
13174;DHT22;6652;48.802;9.190;2023-12-07T09:25:11;15.40;91.80
13174;DHT22;6652;48.802;9.190;2023-12-07T09:27:38;15.50;91.70
13174;DHT22;6652;48.802;9.190;2023-12-07T09:30:06;15.60;91.50
13174;DHT22;6652;48.802;9.190;2023-12-07T09:32:36;15.50;91.00
13174;DHT22;6652;48.802;9.190;2023-12-07T09:35:06;15.50;90.90
13174;DHT22;6652;48.802;9.190;2023-12-07T09:37:33;15.30;90.90
13174;DHT22;6652;48.802;9.190;2023-12-07T09:40:00;15.60;90.80
13174;DHT22;6652;48.802;9.190;2023-12-07T09:42:30;15.70;90.80
13174;DHT22;6652;48.802;9.190;2023-12-07T09:44:57;15.40;90.10
13174;DHT22;6652;48.802;9.190;2023-12-07T09:47:24;15.20;90.40
13174;DHT22;6652;48.802;9.190;2023-12-07T09:49:51;14.90;90.30
13174;DHT22;6652;48.802;9.190;2023-12-07T09:52:21;14.50;90.60
13174;DHT22;6652;48.802;9.190;2023-12-07T09:54:49;14.60;90.70
13174;DHT22;6652;48.802;9.190;2023-12-07T09:57:16;14.60;90.50
13174;DHT22;6652;48.802;9.190;2023-12-07T09:59:43;14.70;90.10
13174;DHT22;6652;48.802;9.190;2023-12-07T10:02:10;14.80;90.50
13174;DHT22;6652;48.802;9.190;2023-12-07T10:04:37;15.00;90.20
13174;DHT22;6652;48.802;9.190;2023-12-07T10:07:04;15.00;89.70
13174;DHT22;6652;48.802;9.190;2023-12-07T10:09:38;15.00;88.80
13174;DHT22;6652;48.802;9.190;2023-12-07T10:12:05;14.70;89.10
13174;DHT22;6652;48.802;9.190;2023-12-07T10:14:32;15.10;89.50
13174;DHT22;6652;48.802;9.190;2023-12-07T10:17:00;15.00;88.00
13174;DHT22;6652;48.802;9.190;2023-12-07T10:19:27;15.20;87.80
13174;DHT22;6652;48.802;9.190;2023-12-07T10:21:54;15.30;87.20
13174;DHT22;6652;48.802;9.190;2023-12-07T10:24:22;15.10;85.90
13174;DHT22;6652;48.802;9.190;2023-12-07T10:26:51;14.80;86.40
13174;DHT22;6652;48.802;9.190;2023-12-07T10:29:18;14.90;86.30
13174;DHT22;6652;48.802;9.190;2023-12-07T10:31:45;14.80;86.00
13174;DHT22;6652;48.802;9.190;2023-12-07T10:34:13;13.90;88.10
13174;DHT22;6652;48.802;9.190;2023-12-07T10:36:45;12.20;90.40
13174;DHT22;6652;48.802;9.190;2023-12-07T10:39:12;10.40;91.50
13174;DHT22;6652;48.802;9.190;2023-12-07T10:41:43;9.00;93.80
13174;DHT22;6652;48.802;9.190;2023-12-07T10:44:13;7.90;95.60
13174;DHT22;6652;48.802;9.190;2023-12-07T10:46:42;7.40;97.30
13174;DHT22;6652;48.802;9.190;2023-12-07T10:49:14;6.70;98.50
13174;DHT22;6652;48.802;9.190;2023-12-07T10:51:50;6.40;99.40
13174;DHT22;6652;48.802;9.190;2023-12-07T10:54:22;6.20;99.90
13174;DHT22;6652;48.802;9.190;2023-12-07T10:56:49;6.10;99.90
13174;DHT22;6652;48.802;9.190;2023-12-07T10:59:18;6.10;99.90
13174;DHT22;6652;48.802;9.190;2023-12-07T11:01:47;6.00;99.90
13174;DHT22;6652;48.802;9.190;2023-12-07T11:04:15;6.10;99.90
13174;DHT22;6652;48.802;9.190;2023-12-07T11:06:44;6.10;99.90
13174;DHT22;6652;48.802;9.190;2023-12-07T11:09:15;6.20;99.90
13174;DHT22;6652;48.802;9.190;2023-12-07T11:11:46;6.20;99.90
13174;DHT22;6652;48.802;9.190;2023-12-07T11:14:15;6.20;99.90
13174;DHT22;6652;48.802;9.190;2023-12-07T11:16:46;6.10;99.90
13174;DHT22;6652;48.802;9.190;2023-12-07T11:19:45;6.00;99.90
13174;DHT22;6652;48.802;9.190;2023-12-07T11:22:13;5.90;99.90
13174;DHT22;6652;48.802;9.190;2023-12-07T11:24:52;5.90;99.90
13174;DHT22;6652;48.802;9.190;2023-12-07T11:27:20;5.90;99.90
13174;DHT22;6652;48.802;9.190;2023-12-07T11:29:48;6.00;99.90
13174;DHT22;6652;48.802;9.190;2023-12-07T11:32:16;6.00;99.90
13174;DHT22;6652;48.802;9.190;2023-12-07T11:34:43;6.00;99.90
13174;DHT22;6652;48.802;9.190;2023-12-07T11:37:13;6.00;99.90
13174;DHT22;6652;48.802;9.190;2023-12-07T11:39:42;6.10;99.90
13174;DHT22;6652;48.802;9.190;2023-12-07T11:42:11;6.20;99.90
13174;DHT22;6652;48.802;9.190;2023-12-07T11:44:39;6.20;99.90
13174;DHT22;6652;48.802;9.190;2023-12-07T11:47:07;6.20;99.90
13174;DHT22;6652;48.802;9.190;2023-12-07T11:49:35;6.20;99.90
13174;DHT22;6652;48.802;9.190;2023-12-07T11:52:13;6.10;99.90
13174;DHT22;6652;48.802;9.190;2023-12-07T11:54:40;6.10;99.90
13174;DHT22;6652;48.802;9.190;2023-12-07T11:57:07;6.10;99.90
13174;DHT22;6652;48.802;9.190;2023-12-07T11:59:34;6.10;99.90
13174;DHT22;6652;48.802;9.190;2023-12-07T12:02:01;6.20;99.90
13174;DHT22;6652;48.802;9.190;2023-12-07T12:04:28;6.10;99.90
13174;DHT22;6652;48.802;9.190;2023-12-07T12:06:56;6.10;99.90
13174;DHT22;6652;48.802;9.190;2023-12-07T12:09:24;6.10;99.90
13174;DHT22;6652;48.802;9.190;2023-12-07T12:11:51;6.10;99.90
13174;DHT22;6652;48.802;9.190;2023-12-07T12:14:18;6.20;99.90
13174;DHT22;6652;48.802;9.190;2023-12-07T12:16:46;6.20;99.90
13174;DHT22;6652;48.802;9.190;2023-12-07T12:19:13;6.30;99.90
13174;DHT22;6652;48.802;9.190;2023-12-07T12:21:41;6.20;99.90
13174;DHT22;6652;48.802;9.190;2023-12-07T12:24:11;6.20;99.90
13174;DHT22;6652;48.802;9.190;2023-12-07T12:26:40;6.20;99.90
13174;DHT22;6652;48.802;9.190;2023-12-07T12:29:08;6.00;99.90
13174;DHT22;6652;48.802;9.190;2023-12-07T12:31:35;6.00;99.90
13174;DHT22;6652;48.802;9.190;2023-12-07T12:34:02;5.90;99.90
13174;DHT22;6652;48.802;9.190;2023-12-07T12:36:29;5.90;99.90
13174;DHT22;6652;48.802;9.190;2023-12-07T12:38:56;5.90;99.90
13174;DHT22;6652;48.802;9.190;2023-12-07T12:41:24;6.00;99.90
13174;DHT22;6652;48.802;9.190;2023-12-07T12:43:53;5.90;99.90
13174;DHT22;6652;48.802;9.190;2023-12-07T12:46:20;6.00;99.90
13174;DHT22;6652;48.802;9.190;2023-12-07T12:48:54;6.10;99.90
13174;DHT22;6652;48.802;9.190;2023-12-07T12:51:31;6.10;99.90
13174;DHT22;6652;48.802;9.190;2023-12-07T12:54:07;6.10;99.90
13174;DHT22;6652;48.802;9.190;2023-12-07T13:09:59;6.00;99.90
13174;DHT22;6652;48.802;9.190;2023-12-07T13:12:25;6.00;99.90
13174;DHT22;6652;48.802;9.190;2023-12-07T13:14:53;6.10;99.90
13174;DHT22;6652;48.802;9.190;2023-12-07T13:17:20;6.10;99.90
13174;DHT22;6652;48.802;9.190;2023-12-07T13:19:47;6.10;99.90
13174;DHT22;6652;48.802;9.190;2023-12-07T13:22:14;6.10;99.90
13174;DHT22;6652;48.802;9.190;2023-12-07T13:24:41;6.00;99.90
13174;DHT22;6652;48.802;9.190;2023-12-07T13:27:09;5.90;99.90
13174;DHT22;6652;48.802;9.190;2023-12-07T13:29:35;5.90;99.90
13174;DHT22;6652;48.802;9.190;2023-12-07T13:32:03;5.90;99.90
13174;DHT22;6652;48.802;9.190;2023-12-07T13:34:30;5.90;99.90
13174;DHT22;6652;48.802;9.190;2023-12-07T13:36:57;5.90;99.90
13174;DHT22;6652;48.802;9.190;2023-12-07T13:39:24;5.90;99.90
13174;DHT22;6652;48.802;9.190;2023-12-07T13:41:52;5.90;99.90
13174;DHT22;6652;48.802;9.190;2023-12-07T13:44:20;5.80;99.90
13174;DHT22;6652;48.802;9.190;2023-12-07T13:46:47;5.80;99.90
13174;DHT22;6652;48.802;9.190;2023-12-07T13:49:13;5.90;99.90
13174;DHT22;6652;48.802;9.190;2023-12-07T13:51:42;5.80;99.90
13174;DHT22;6652;48.802;9.190;2023-12-07T13:54:09;5.80;99.90
13174;DHT22;6652;48.802;9.190;2023-12-07T13:56:36;5.90;99.90
13174;DHT22;6652;48.802;9.190;2023-12-07T13:59:03;5.70;99.90
13174;DHT22;6652;48.802;9.190;2023-12-07T14:01:33;5.80;99.90
13174;DHT22;6652;48.802;9.190;2023-12-07T14:04:00;5.80;99.90
13174;DHT22;6652;48.802;9.190;2023-12-07T14:06:27;5.80;99.90
13174;DHT22;6652;48.802;9.190;2023-12-07T14:08:54;5.80;99.90
13174;DHT22;6652;48.802;9.190;2023-12-07T14:11:21;5.80;99.90
13174;DHT22;6652;48.802;9.190;2023-12-07T14:13:47;6.10;99.90
13174;DHT22;6652;48.802;9.190;2023-12-07T14:16:19;5.90;99.90
13174;DHT22;6652;48.802;9.190;2023-12-07T14:18:47;5.90;99.40
13174;DHT22;6652;48.802;9.190;2023-12-07T14:21:19;5.80;98.60
13174;DHT22;6652;48.802;9.190;2023-12-07T14:23:46;5.80;98.80
13174;DHT22;6652;48.802;9.190;2023-12-07T14:26:12;5.80;97.40
13174;DHT22;6652;48.802;9.190;2023-12-07T14:28:39;5.70;96.40
13174;DHT22;6652;48.802;9.190;2023-12-07T14:31:07;5.60;96.30
13174;DHT22;6652;48.802;9.190;2023-12-07T14:33:39;5.60;96.00
13174;DHT22;6652;48.802;9.190;2023-12-07T14:36:10;5.50;95.80
13174;DHT22;6652;48.802;9.190;2023-12-07T14:38:37;5.50;96.10
13174;DHT22;6652;48.802;9.190;2023-12-07T14:41:05;5.40;94.50
13174;DHT22;6652;48.802;9.190;2023-12-07T14:43:32;5.30;94.90
13174;DHT22;6652;48.802;9.190;2023-12-07T14:45:59;5.30;95.20
13174;DHT22;6652;48.802;9.190;2023-12-07T14:48:27;5.20;94.80
13174;DHT22;6652;48.802;9.190;2023-12-07T14:50:54;5.10;95.20
13174;DHT22;6652;48.802;9.190;2023-12-07T14:53:23;5.10;95.60
13174;DHT22;6652;48.802;9.190;2023-12-07T14:55:51;5.00;95.70
13174;DHT22;6652;48.802;9.190;2023-12-07T14:58:18;4.90;95.80
13174;DHT22;6652;48.802;9.190;2023-12-07T15:00:44;4.90;95.90
13174;DHT22;6652;48.802;9.190;2023-12-07T15:03:12;4.80;96.10
13174;DHT22;6652;48.802;9.190;2023-12-07T15:05:38;4.70;96.30
13174;DHT22;6652;48.802;9.190;2023-12-07T15:08:06;4.60;96.50
13174;DHT22;6652;48.802;9.190;2023-12-07T15:10:34;4.60;96.80
13174;DHT22;6652;48.802;9.190;2023-12-07T15:13:01;4.60;97.10
13174;DHT22;6652;48.802;9.190;2023-12-07T15:15:29;4.50;97.20
13174;DHT22;6652;48.802;9.190;2023-12-07T15:17:56;4.40;97.40
13174;DHT22;6652;48.802;9.190;2023-12-07T15:20:23;4.40;97.60
13174;DHT22;6652;48.802;9.190;2023-12-07T15:22:52;4.20;97.70
13174;DHT22;6652;48.802;9.190;2023-12-07T15:25:19;4.30;97.90
13174;DHT22;6652;48.802;9.190;2023-12-07T15:27:49;4.20;98.00
13174;DHT22;6652;48.802;9.190;2023-12-07T15:30:16;4.10;98.20
13174;DHT22;6652;48.802;9.190;2023-12-07T15:32:43;4.10;97.90
13174;DHT22;6652;48.802;9.190;2023-12-07T15:35:10;4.10;97.90
13174;DHT22;6652;48.802;9.190;2023-12-07T15:37:37;4.00;98.00
13174;DHT22;6652;48.802;9.190;2023-12-07T15:40:04;4.00;98.10
13174;DHT22;6652;48.802;9.190;2023-12-07T15:42:35;3.90;98.20
13174;DHT22;6652;48.802;9.190;2023-12-07T15:45:04;3.90;98.20
13174;DHT22;6652;48.802;9.190;2023-12-07T15:47:31;3.80;98.30
13174;DHT22;6652;48.802;9.190;2023-12-07T15:49:59;3.80;98.40
13174;DHT22;6652;48.802;9.190;2023-12-07T15:52:26;3.80;98.50
13174;DHT22;6652;48.802;9.190;2023-12-07T15:54:53;3.70;98.60
13174;DHT22;6652;48.802;9.190;2023-12-07T15:57:20;3.70;98.70
13174;DHT22;6652;48.802;9.190;2023-12-07T15:59:47;3.90;98.90
13174;DHT22;6652;48.802;9.190;2023-12-07T16:02:15;3.60;98.80
13174;DHT22;6652;48.802;9.190;2023-12-07T16:04:43;3.50;99.00
13174;DHT22;6652;48.802;9.190;2023-12-07T16:07:11;3.50;99.10
13174;DHT22;6652;48.802;9.190;2023-12-07T16:09:39;3.50;99.20
13174;DHT22;6652;48.802;9.190;2023-12-07T16:12:07;3.40;99.40
13174;DHT22;6652;48.802;9.190;2023-12-07T16:14:34;3.40;99.50
13174;DHT22;6652;48.802;9.190;2023-12-07T16:17:02;3.30;99.60